createdAt,value
2023-05-17T00:04:20.774Z,10.63
2023-05-17T00:09:20.623Z,10.63
2023-05-17T00:14:20.513Z,10.67
2023-05-17T00:19:20.636Z,10.63
2023-05-17T00:24:20.401Z,10.68
2023-05-17T00:29:20.414Z,10.66
2023-05-17T00:34:20.356Z,10.79
2023-05-17T00:39:20.335Z,10.74
2023-05-17T00:44:20.288Z,10.45
2023-05-17T00:49:20.178Z,10.22
2023-05-17T00:54:20.175Z,9.94
2023-05-17T00:59:20.072Z,9.89
2023-05-17T01:04:20.030Z,9.87
2023-05-17T01:09:19.930Z,9.78
2023-05-17T01:14:19.884Z,9.75
2023-05-17T01:19:19.932Z,9.97
2023-05-17T01:24:19.819Z,10.05
2023-05-17T01:29:19.832Z,10.07
2023-05-17T01:34:19.757Z,10.14
2023-05-17T01:39:19.665Z,10.11
2023-05-17T01:44:19.658Z,10.09
2023-05-17T01:49:19.531Z,10.01
2023-05-17T01:54:19.505Z,9.83
2023-05-17T01:59:19.430Z,9.64
2023-05-17T02:04:19.392Z,9.65
2023-05-17T02:09:19.350Z,9.61
2023-05-17T02:14:19.274Z,9.60
2023-05-17T02:19:19.272Z,9.66
2023-05-17T02:24:19.232Z,9.46
2023-05-17T02:29:19.094Z,9.15
2023-05-17T02:34:19.170Z,8.96
2023-05-17T02:39:18.973Z,8.81
2023-05-17T02:44:18.906Z,8.68
2023-05-17T02:49:18.943Z,8.62
2023-05-17T02:54:18.797Z,8.65
2023-05-17T02:59:18.865Z,8.59
2023-05-17T03:04:18.816Z,8.65
2023-05-17T03:09:18.720Z,8.59
2023-05-17T03:14:18.653Z,8.52
2023-05-17T03:19:18.734Z,8.55
2023-05-17T03:24:18.461Z,8.61
2023-05-17T03:29:18.439Z,8.62
2023-05-17T03:34:18.403Z,8.84
2023-05-17T03:39:21.841Z,8.99
2023-05-17T03:44:30.190Z,9.20
2023-05-17T03:49:18.303Z,9.20
2023-05-17T03:54:18.353Z,9.17
2023-05-17T03:59:19.191Z,9.15
2023-05-17T04:04:18.536Z,9.33
2023-05-17T04:09:18.107Z,9.83
2023-05-17T04:14:17.989Z,9.86
2023-05-17T04:19:18.597Z,9.97
2023-05-17T04:24:18.005Z,9.89
2023-05-17T04:29:18.075Z,9.94
2023-05-17T04:34:18.023Z,9.79
2023-05-17T04:39:17.851Z,10.05
2023-05-17T04:44:17.857Z,10.29
2023-05-17T04:49:17.689Z,10.47
2023-05-17T04:54:26.135Z,10.78
2023-05-17T04:59:22.334Z,10.91
2023-05-17T05:04:17.598Z,11.10
2023-05-17T05:09:17.422Z,11.29
2023-05-17T05:14:17.528Z,11.27
2023-05-17T05:19:19.881Z,11.25
2023-05-17T05:24:17.409Z,11.46
2023-05-17T05:29:17.192Z,11.67
2023-05-17T05:34:17.168Z,11.82
2023-05-17T05:39:17.187Z,11.96
2023-05-17T05:44:17.167Z,12.29
2023-05-17T05:49:18.128Z,12.24
2023-05-17T05:54:17.001Z,12.59
2023-05-17T05:59:17.340Z,12.85
2023-05-17T06:04:16.852Z,13.01
2023-05-17T06:09:16.762Z,13.15
2023-05-17T06:14:17.830Z,13.36
2023-05-17T06:19:18.111Z,13.46
2023-05-17T06:24:16.670Z,13.82
2023-05-17T06:29:17.030Z,13.78
2023-05-17T06:34:16.607Z,13.54
2023-05-17T06:39:16.540Z,13.91
2023-05-17T06:44:17.898Z,13.54
2023-05-17T06:49:18.498Z,13.70
2023-05-17T06:54:16.399Z,13.63
2023-05-17T06:59:16.371Z,14.39
2023-05-17T07:04:16.286Z,14.99
2023-05-17T07:09:16.072Z,15.67
2023-05-17T07:14:16.216Z,15.57
2023-05-17T07:19:16.408Z,15.78
2023-05-17T07:24:18.285Z,15.78
2023-05-17T07:29:16.583Z,14.89
2023-05-17T07:34:19.606Z,14.43
2023-05-17T07:39:16.293Z,14.39
2023-05-17T07:44:15.746Z,14.25
2023-05-17T07:49:15.732Z,14.96
2023-05-17T07:54:17.065Z,15.36
2023-05-17T07:59:18.348Z,15.86
2023-05-17T08:04:15.598Z,15.86
2023-05-17T08:09:15.477Z,16.17
2023-05-17T08:14:19.367Z,16.58
2023-05-17T08:19:17.124Z,16.96
2023-05-17T08:24:15.829Z,17.15
2023-05-17T08:29:15.712Z,17.66
2023-05-17T08:34:17.288Z,17.07
2023-05-17T08:39:15.256Z,15.87
2023-05-17T08:44:15.180Z,15.89
2023-05-17T08:49:16.259Z,15.83
2023-05-17T08:54:15.055Z,15.51
2023-05-17T08:59:14.994Z,16.17
2023-05-17T09:04:15.876Z,16.66
2023-05-17T09:09:15.086Z,16.60
2023-05-17T09:14:14.875Z,16.45
2023-05-17T09:19:14.984Z,16.67
2023-05-17T09:24:14.713Z,16.45
2023-05-17T09:29:14.843Z,16.49
2023-05-17T09:34:15.672Z,16.31
2023-05-17T09:39:16.540Z,16.49
2023-05-17T09:44:17.997Z,16.60
2023-05-17T09:49:23.318Z,16.38
2023-05-17T09:54:14.342Z,16.43
2023-05-17T09:59:14.311Z,17.54
2023-05-17T10:04:14.560Z,18.08
2023-05-17T10:09:14.348Z,17.72
2023-05-17T10:14:14.163Z,17.41
2023-05-17T10:19:14.244Z,18.27
2023-05-17T10:24:14.075Z,18.55
2023-05-17T10:29:13.965Z,19.31
2023-05-17T10:34:13.945Z,18.44
2023-05-17T10:39:13.940Z,18.35
2023-05-17T10:44:13.878Z,19.00
2023-05-17T10:49:13.813Z,18.57
2023-05-17T10:54:13.742Z,18.21
2023-05-17T10:59:13.663Z,19.02
2023-05-17T11:04:13.614Z,18.21
2023-05-17T11:09:13.480Z,18.26
2023-05-17T11:14:13.427Z,18.88
2023-05-17T11:19:13.494Z,19.36
2023-05-17T11:24:13.449Z,19.40
2023-05-17T11:29:13.390Z,19.94
2023-05-17T11:34:13.268Z,20.10
2023-05-17T11:39:13.231Z,20.14
2023-05-17T11:44:13.267Z,20.32
2023-05-17T11:49:20.283Z,20.51
2023-05-17T11:54:14.120Z,18.91
2023-05-17T11:59:13.166Z,19.69
2023-05-17T12:04:13.007Z,19.54
2023-05-17T12:09:12.899Z,19.66
2023-05-17T12:14:12.933Z,20.13
2023-05-17T12:19:13.083Z,20.67
2023-05-17T12:24:12.897Z,20.35
2023-05-17T12:29:12.735Z,19.54
2023-05-17T12:34:12.912Z,19.54
2023-05-17T12:39:12.596Z,19.31
2023-05-17T12:44:15.958Z,19.94
2023-05-17T12:49:12.776Z,20.08
2023-05-17T12:54:12.489Z,19.36
2023-05-17T12:59:12.462Z,19.77
2023-05-17T13:04:12.572Z,21.09
2023-05-17T13:09:12.412Z,19.87
2023-05-17T13:14:12.281Z,19.95
2023-05-17T13:19:12.295Z,21.04
2023-05-17T13:24:12.173Z,21.40
2023-05-17T13:29:12.145Z,21.13
2023-05-17T13:34:12.132Z,20.85
2023-05-17T13:39:12.141Z,20.91
2023-05-17T13:44:12.061Z,20.57
2023-05-17T13:49:13.058Z,20.72
2023-05-17T13:54:11.919Z,20.79
2023-05-17T13:59:11.902Z,20.55
2023-05-17T14:04:11.941Z,20.85
2023-05-17T14:09:11.734Z,21.09
2023-05-17T14:14:11.740Z,20.47
2023-05-17T14:19:11.787Z,19.68
2023-05-17T14:24:11.731Z,20.61
2023-05-17T14:29:12.699Z,20.99
2023-05-17T14:34:11.766Z,21.31
2023-05-17T14:39:11.552Z,21.74
2023-05-17T14:44:11.415Z,21.47
2023-05-17T14:49:11.367Z,21.47
2023-05-17T14:54:13.548Z,21.98
2023-05-17T14:59:11.239Z,21.77
2023-05-17T15:04:11.384Z,21.58
2023-05-17T15:09:11.156Z,21.28
2023-05-17T15:14:11.075Z,22.91
2023-05-17T15:19:11.083Z,23.04
2023-05-17T15:24:13.268Z,21.34
2023-05-17T15:29:10.903Z,22.95
2023-05-17T15:34:10.981Z,23.79
2023-05-17T15:39:10.829Z,20.91
2023-05-17T15:44:10.766Z,19.54
2023-05-17T15:49:10.850Z,18.29
2023-05-17T15:54:10.734Z,18.26
2023-05-17T15:59:10.742Z,17.99
2023-05-17T16:04:11.639Z,18.27
2023-05-17T16:09:10.538Z,17.95
2023-05-17T16:14:32.992Z,18.00
2023-05-17T16:19:10.576Z,17.58
2023-05-17T16:24:10.368Z,17.37
2023-05-17T16:29:13.367Z,17.37
2023-05-17T16:34:10.565Z,17.25
2023-05-17T16:39:14.341Z,16.94
2023-05-17T16:44:10.678Z,16.71
2023-05-17T16:49:10.871Z,16.76
2023-05-17T16:54:09.955Z,16.88
2023-05-17T16:59:11.037Z,17.11
2023-05-17T17:04:09.929Z,16.73
2023-05-17T17:09:13.259Z,16.70
2023-05-17T17:14:09.804Z,16.53
2023-05-17T17:19:09.930Z,16.58
2023-05-17T17:24:10.161Z,16.49
2023-05-17T17:29:09.722Z,16.21
2023-05-17T17:34:11.752Z,15.93
2023-05-17T17:39:09.560Z,16.01
2023-05-17T17:44:09.536Z,16.05
2023-05-17T17:49:09.546Z,16.02
2023-05-17T17:54:09.470Z,16.11
2023-05-17T17:59:20.309Z,15.80
2023-05-17T18:04:10.963Z,15.71
2023-05-17T18:09:09.617Z,15.56
2023-05-17T18:14:09.435Z,15.50
2023-05-17T18:19:09.182Z,15.64
2023-05-17T18:24:09.247Z,15.54
2023-05-17T18:29:13.379Z,15.36
2023-05-17T18:34:18.871Z,15.27
2023-05-17T18:39:08.954Z,15.27
2023-05-17T18:44:08.839Z,15.25
2023-05-17T18:49:08.813Z,14.99
2023-05-17T18:54:08.760Z,14.99
2023-05-17T18:59:17.766Z,14.86
2023-05-17T19:04:14.168Z,14.72
2023-05-17T19:09:08.911Z,14.55
2023-05-17T19:14:08.533Z,14.45
2023-05-17T19:19:08.539Z,14.29
2023-05-17T19:24:08.450Z,14.14
2023-05-17T19:29:10.490Z,13.97
2023-05-17T19:34:09.373Z,13.79
2023-05-17T19:39:08.238Z,13.60
2023-05-17T19:44:08.207Z,13.41
2023-05-17T19:49:08.174Z,13.19
2023-05-17T19:54:08.153Z,13.04
2023-05-17T19:59:13.466Z,12.85
2023-05-17T20:04:08.119Z,12.65
2023-05-17T20:09:07.892Z,12.46
2023-05-17T20:14:07.818Z,12.28
2023-05-17T20:19:07.810Z,12.12
2023-05-17T20:24:11.105Z,12.01
2023-05-17T20:29:07.863Z,11.90
2023-05-17T20:34:07.616Z,11.80
2023-05-17T20:39:07.512Z,11.73
2023-05-17T20:44:07.512Z,11.65
2023-05-17T20:49:15.338Z,11.52
2023-05-17T20:54:08.474Z,11.51
2023-05-17T20:59:09.457Z,11.46
2023-05-17T21:04:07.303Z,11.35
2023-05-17T21:09:07.251Z,11.19
2023-05-17T21:14:07.184Z,11.06
2023-05-17T21:19:07.140Z,10.89
2023-05-17T21:24:08.171Z,10.74
2023-05-17T21:29:07.057Z,10.61
2023-05-17T21:34:10.376Z,10.47
2023-05-17T21:39:06.963Z,10.42
2023-05-17T21:44:06.858Z,10.36
2023-05-17T21:49:06.731Z,10.29
2023-05-17T21:54:06.705Z,10.33
2023-05-17T21:59:06.669Z,10.25
2023-05-17T22:04:06.890Z,10.15
2023-05-17T22:09:08.736Z,9.99
2023-05-17T22:14:06.663Z,9.90
2023-05-17T22:19:06.523Z,9.79
2023-05-17T22:24:06.415Z,9.71
2023-05-17T22:29:09.832Z,9.64
2023-05-17T22:34:06.319Z,9.54
2023-05-17T22:39:06.347Z,9.46
2023-05-17T22:44:06.207Z,9.36
2023-05-17T22:49:06.263Z,9.28
2023-05-17T22:54:06.094Z,9.20
2023-05-17T22:59:06.065Z,9.04
2023-05-17T23:04:06.038Z,8.98
2023-05-17T23:09:05.937Z,8.86
2023-05-17T23:14:06.053Z,8.77
2023-05-17T23:19:06.032Z,8.71
2023-05-17T23:24:05.915Z,8.61
2023-05-17T23:29:05.819Z,8.50
2023-05-17T23:34:05.685Z,8.45
2023-05-17T23:39:05.723Z,8.40
2023-05-17T23:44:05.599Z,8.36
2023-05-17T23:49:05.545Z,8.26
2023-05-17T23:54:05.459Z,8.15
2023-05-17T23:59:05.491Z,8.10
